sensor_id;sensor_type;location;lat;lon;timestamp;P1;durP1;ratioP1;P2;durP2;ratioP2
24631;SDS011;59977;48.782;9.190;2022-12-18T00:02:14;88.45;;;37.28;;
24631;SDS011;59977;48.782;9.190;2022-12-18T00:04:39;96.85;;;37.42;;
24631;SDS011;59977;48.782;9.190;2022-12-18T00:07:05;90.78;;;38.45;;
24631;SDS011;59977;48.782;9.190;2022-12-18T00:09:30;99.80;;;38.97;;
24631;SDS011;59977;48.782;9.190;2022-12-18T00:11:56;90.75;;;37.15;;
24631;SDS011;59977;48.782;9.190;2022-12-18T00:14:22;88.80;;;37.22;;
24631;SDS011;59977;48.782;9.190;2022-12-18T00:16:47;90.22;;;37.15;;
24631;SDS011;59977;48.782;9.190;2022-12-18T00:19:13;92.05;;;37.60;;
24631;SDS011;59977;48.782;9.190;2022-12-18T00:21:39;83.38;;;35.80;;
24631;SDS011;59977;48.782;9.190;2022-12-18T00:24:06;84.35;;;36.78;;
24631;SDS011;59977;48.782;9.190;2022-12-18T00:26:33;94.45;;;38.22;;
24631;SDS011;59977;48.782;9.190;2022-12-18T00:29:08;87.47;;;36.50;;
24631;SDS011;59977;48.782;9.190;2022-12-18T00:31:38;96.57;;;37.72;;
24631;SDS011;59977;48.782;9.190;2022-12-18T00:34:05;90.55;;;36.95;;
24631;SDS011;59977;48.782;9.190;2022-12-18T00:36:32;96.65;;;37.33;;
24631;SDS011;59977;48.782;9.190;2022-12-18T00:38:59;98.65;;;37.95;;
24631;SDS011;59977;48.782;9.190;2022-12-18T00:41:26;91.75;;;36.85;;
24631;SDS011;59977;48.782;9.190;2022-12-18T00:44:12;84.82;;;35.90;;
24631;SDS011;59977;48.782;9.190;2022-12-18T00:46:39;85.57;;;36.70;;
24631;SDS011;59977;48.782;9.190;2022-12-18T00:49:05;89.95;;;38.25;;
24631;SDS011;59977;48.782;9.190;2022-12-18T00:51:31;97.38;;;37.20;;
24631;SDS011;59977;48.782;9.190;2022-12-18T00:53:57;91.43;;;38.28;;
24631;SDS011;59977;48.782;9.190;2022-12-18T00:56:23;88.18;;;38.22;;
24631;SDS011;59977;48.782;9.190;2022-12-18T00:58:49;101.95;;;37.67;;
24631;SDS011;59977;48.782;9.190;2022-12-18T01:01:15;92.93;;;37.70;;
24631;SDS011;59977;48.782;9.190;2022-12-18T01:03:41;97.50;;;37.95;;
24631;SDS011;59977;48.782;9.190;2022-12-18T01:06:07;93.93;;;38.70;;
24631;SDS011;59977;48.782;9.190;2022-12-18T01:08:34;96.35;;;39.17;;
24631;SDS011;59977;48.782;9.190;2022-12-18T01:11:00;91.35;;;38.78;;
24631;SDS011;59977;48.782;9.190;2022-12-18T01:13:31;94.72;;;38.47;;
24631;SDS011;59977;48.782;9.190;2022-12-18T01:15:57;102.30;;;38.45;;
24631;SDS011;59977;48.782;9.190;2022-12-18T01:18:22;97.95;;;40.13;;
24631;SDS011;59977;48.782;9.190;2022-12-18T01:20:48;104.75;;;38.53;;
24631;SDS011;59977;48.782;9.190;2022-12-18T01:23:13;96.60;;;38.58;;
24631;SDS011;59977;48.782;9.190;2022-12-18T01:25:39;95.95;;;39.22;;
24631;SDS011;59977;48.782;9.190;2022-12-18T01:28:05;93.78;;;37.45;;
24631;SDS011;59977;48.782;9.190;2022-12-18T01:30:30;100.47;;;39.22;;
24631;SDS011;59977;48.782;9.190;2022-12-18T01:32:56;94.38;;;38.47;;
24631;SDS011;59977;48.782;9.190;2022-12-18T01:35:21;90.07;;;37.20;;
24631;SDS011;59977;48.782;9.190;2022-12-18T01:37:47;100.10;;;38.35;;
24631;SDS011;59977;48.782;9.190;2022-12-18T01:40:12;92.50;;;36.63;;
24631;SDS011;59977;48.782;9.190;2022-12-18T01:42:38;94.35;;;38.47;;
24631;SDS011;59977;48.782;9.190;2022-12-18T01:47:50;95.90;;;37.25;;
24631;SDS011;59977;48.782;9.190;2022-12-18T01:50:28;86.00;;;34.85;;
24631;SDS011;59977;48.782;9.190;2022-12-18T01:55:43;81.97;;;34.40;;
24631;SDS011;59977;48.782;9.190;2022-12-18T01:58:15;88.80;;;35.65;;
24631;SDS011;59977;48.782;9.190;2022-12-18T02:00:44;95.20;;;36.28;;
24631;SDS011;59977;48.782;9.190;2022-12-18T02:03:10;88.20;;;34.63;;
24631;SDS011;59977;48.782;9.190;2022-12-18T02:05:39;87.53;;;35.50;;
24631;SDS011;59977;48.782;9.190;2022-12-18T02:08:14;81.50;;;33.30;;
24631;SDS011;59977;48.782;9.190;2022-12-18T02:10:46;95.22;;;35.38;;
24631;SDS011;59977;48.782;9.190;2022-12-18T02:13:26;80.78;;;32.97;;
24631;SDS011;59977;48.782;9.190;2022-12-18T02:16:24;83.45;;;33.22;;
24631;SDS011;59977;48.782;9.190;2022-12-18T02:18:57;85.78;;;31.38;;
24631;SDS011;59977;48.782;9.190;2022-12-18T02:24:30;79.93;;;31.45;;
24631;SDS011;59977;48.782;9.190;2022-12-18T02:27:11;79.70;;;32.30;;
24631;SDS011;59977;48.782;9.190;2022-12-18T02:29:43;80.82;;;31.25;;
24631;SDS011;59977;48.782;9.190;2022-12-18T02:32:17;79.43;;;32.15;;
24631;SDS011;59977;48.782;9.190;2022-12-18T09:41:18;68.03;;;27.05;;
24631;SDS011;59977;48.782;9.190;2022-12-18T09:44:05;65.22;;;25.48;;
24631;SDS011;59977;48.782;9.190;2022-12-18T09:49:28;73.07;;;27.85;;
24631;SDS011;59977;48.782;9.190;2022-12-18T09:52:02;60.50;;;26.65;;
24631;SDS011;59977;48.782;9.190;2022-12-18T09:54:45;61.38;;;25.65;;
24631;SDS011;59977;48.782;9.190;2022-12-18T09:57:19;69.20;;;28.02;;
24631;SDS011;59977;48.782;9.190;2022-12-18T09:59:50;136.40;;;50.50;;
24631;SDS011;59977;48.782;9.190;2022-12-18T10:02:24;63.17;;;27.35;;
24631;SDS011;59977;48.782;9.190;2022-12-18T10:05:11;74.03;;;29.55;;
24631;SDS011;59977;48.782;9.190;2022-12-18T10:13:07;61.90;;;26.20;;
24631;SDS011;59977;48.782;9.190;2022-12-18T10:20:54;64.82;;;26.40;;
24631;SDS011;59977;48.782;9.190;2022-12-18T10:23:33;63.50;;;26.48;;
24631;SDS011;59977;48.782;9.190;2022-12-18T10:26:18;55.08;;;25.73;;
24631;SDS011;59977;48.782;9.190;2022-12-18T10:28:43;55.55;;;25.52;;
24631;SDS011;59977;48.782;9.190;2022-12-18T10:31:17;56.45;;;25.83;;
24631;SDS011;59977;48.782;9.190;2022-12-18T10:33:44;54.85;;;24.42;;
24631;SDS011;59977;48.782;9.190;2022-12-18T10:36:10;56.25;;;26.35;;
24631;SDS011;59977;48.782;9.190;2022-12-18T10:38:36;67.15;;;27.38;;
24631;SDS011;59977;48.782;9.190;2022-12-18T10:41:23;58.80;;;27.20;;
24631;SDS011;59977;48.782;9.190;2022-12-18T10:44:12;63.15;;;24.60;;
24631;SDS011;59977;48.782;9.190;2022-12-18T10:46:46;54.90;;;23.15;;
24631;SDS011;59977;48.782;9.190;2022-12-18T10:49:25;49.17;;;21.27;;
24631;SDS011;59977;48.782;9.190;2022-12-18T10:54:29;53.85;;;22.65;;
24631;SDS011;59977;48.782;9.190;2022-12-18T10:57:13;46.50;;;22.33;;
24631;SDS011;59977;48.782;9.190;2022-12-18T10:59:52;50.28;;;21.60;;
24631;SDS011;59977;48.782;9.190;2022-12-18T11:02:35;57.35;;;26.77;;
24631;SDS011;59977;48.782;9.190;2022-12-18T11:05:25;59.92;;;26.70;;
24631;SDS011;59977;48.782;9.190;2022-12-18T11:07:59;62.55;;;30.92;;
24631;SDS011;59977;48.782;9.190;2022-12-18T11:10:32;58.95;;;27.48;;
24631;SDS011;59977;48.782;9.190;2022-12-18T11:13:15;61.28;;;28.13;;
24631;SDS011;59977;48.782;9.190;2022-12-18T11:15:44;59.05;;;28.30;;
24631;SDS011;59977;48.782;9.190;2022-12-18T11:18:17;57.85;;;26.45;;
24631;SDS011;59977;48.782;9.190;2022-12-18T11:20:51;58.35;;;26.55;;
24631;SDS011;59977;48.782;9.190;2022-12-18T11:23:20;65.15;;;28.35;;
24631;SDS011;59977;48.782;9.190;2022-12-18T11:25:51;58.53;;;25.45;;
24631;SDS011;59977;48.782;9.190;2022-12-18T11:28:36;56.78;;;27.17;;
24631;SDS011;59977;48.782;9.190;2022-12-18T11:33:47;56.78;;;25.67;;
24631;SDS011;59977;48.782;9.190;2022-12-18T11:36:38;49.30;;;22.13;;
24631;SDS011;59977;48.782;9.190;2022-12-18T11:45:01;49.55;;;21.52;;
24631;SDS011;59977;48.782;9.190;2022-12-18T11:47:43;46.80;;;22.52;;
24631;SDS011;59977;48.782;9.190;2022-12-18T11:50:31;47.60;;;22.00;;
24631;SDS011;59977;48.782;9.190;2022-12-18T11:53:03;45.25;;;21.90;;
24631;SDS011;59977;48.782;9.190;2022-12-18T12:04:02;46.40;;;21.35;;
24631;SDS011;59977;48.782;9.190;2022-12-18T12:23:13;50.90;;;23.60;;
24631;SDS011;59977;48.782;9.190;2022-12-18T12:25:52;52.42;;;22.58;;
24631;SDS011;59977;48.782;9.190;2022-12-18T12:31:45;45.05;;;21.65;;
24631;SDS011;59977;48.782;9.190;2022-12-18T12:34:34;43.95;;;21.55;;
24631;SDS011;59977;48.782;9.190;2022-12-18T12:39:49;49.58;;;22.88;;
24631;SDS011;59977;48.782;9.190;2022-12-18T12:42:34;47.75;;;22.02;;
24631;SDS011;59977;48.782;9.190;2022-12-18T12:45:28;57.25;;;24.05;;
24631;SDS011;59977;48.782;9.190;2022-12-18T12:48:01;48.55;;;22.52;;
24631;SDS011;59977;48.782;9.190;2022-12-18T12:50:29;47.50;;;22.17;;
24631;SDS011;59977;48.782;9.190;2022-12-18T12:52:58;52.67;;;23.40;;
24631;SDS011;59977;48.782;9.190;2022-12-18T12:55:30;49.50;;;22.92;;
24631;SDS011;59977;48.782;9.190;2022-12-18T12:58:05;47.33;;;22.52;;
24631;SDS011;59977;48.782;9.190;2022-12-18T13:00:39;50.95;;;22.75;;
24631;SDS011;59977;48.782;9.190;2022-12-18T13:06:07;49.05;;;22.35;;
24631;SDS011;59977;48.782;9.190;2022-12-18T13:08:57;50.17;;;23.05;;
24631;SDS011;59977;48.782;9.190;2022-12-18T13:11:41;45.60;;;22.52;;
24631;SDS011;59977;48.782;9.190;2022-12-18T13:17:13;51.90;;;23.00;;
24631;SDS011;59977;48.782;9.190;2022-12-18T13:19:42;48.80;;;23.40;;
24631;SDS011;59977;48.782;9.190;2022-12-18T13:22:21;55.55;;;23.88;;
24631;SDS011;59977;48.782;9.190;2022-12-18T13:24:49;50.17;;;22.70;;
24631;SDS011;59977;48.782;9.190;2022-12-18T13:38:36;52.67;;;22.60;;
24631;SDS011;59977;48.782;9.190;2022-12-18T13:43:46;46.80;;;23.15;;
24631;SDS011;59977;48.782;9.190;2022-12-18T13:46:21;53.90;;;23.13;;
24631;SDS011;59977;48.782;9.190;2022-12-18T13:48:51;50.22;;;23.58;;
24631;SDS011;59977;48.782;9.190;2022-12-18T13:51:22;50.42;;;23.63;;
24631;SDS011;59977;48.782;9.190;2022-12-18T13:54:02;48.58;;;23.83;;
24631;SDS011;59977;48.782;9.190;2022-12-18T13:56:44;49.38;;;23.52;;
24631;SDS011;59977;48.782;9.190;2022-12-18T13:59:13;51.42;;;23.60;;
24631;SDS011;59977;48.782;9.190;2022-12-18T14:01:48;50.25;;;24.23;;
24631;SDS011;59977;48.782;9.190;2022-12-18T14:04:33;56.35;;;25.67;;
24631;SDS011;59977;48.782;9.190;2022-12-18T14:10:02;49.35;;;24.75;;
24631;SDS011;59977;48.782;9.190;2022-12-18T14:12:32;56.60;;;26.20;;
24631;SDS011;59977;48.782;9.190;2022-12-18T14:18:03;55.42;;;25.75;;
24631;SDS011;59977;48.782;9.190;2022-12-18T14:20:50;61.15;;;26.77;;
24631;SDS011;59977;48.782;9.190;2022-12-18T14:25:56;58.10;;;26.85;;
24631;SDS011;59977;48.782;9.190;2022-12-18T14:28:22;53.17;;;25.75;;
24631;SDS011;59977;48.782;9.190;2022-12-18T14:30:50;60.03;;;26.98;;
24631;SDS011;59977;48.782;9.190;2022-12-18T14:33:18;57.55;;;26.75;;
24631;SDS011;59977;48.782;9.190;2022-12-18T14:35:58;61.50;;;27.83;;
24631;SDS011;59977;48.782;9.190;2022-12-18T14:38:29;56.58;;;27.10;;
24631;SDS011;59977;48.782;9.190;2022-12-18T14:41:10;58.58;;;27.77;;
24631;SDS011;59977;48.782;9.190;2022-12-18T14:43:41;59.35;;;27.38;;
24631;SDS011;59977;48.782;9.190;2022-12-18T14:46:28;61.65;;;27.65;;
24631;SDS011;59977;48.782;9.190;2022-12-18T14:48:54;61.83;;;29.08;;
24631;SDS011;59977;48.782;9.190;2022-12-18T14:51:31;58.85;;;28.98;;
24631;SDS011;59977;48.782;9.190;2022-12-18T14:53:58;61.97;;;27.98;;
24631;SDS011;59977;48.782;9.190;2022-12-18T14:56:36;58.47;;;27.70;;
24631;SDS011;59977;48.782;9.190;2022-12-18T14:59:13;61.65;;;27.60;;
24631;SDS011;59977;48.782;9.190;2022-12-18T15:04:28;61.50;;;27.63;;
24631;SDS011;59977;48.782;9.190;2022-12-18T15:09:29;65.45;;;28.70;;
24631;SDS011;59977;48.782;9.190;2022-12-18T15:11:56;67.07;;;29.33;;
24631;SDS011;59977;48.782;9.190;2022-12-18T15:16:55;66.28;;;28.00;;
24631;SDS011;59977;48.782;9.190;2022-12-18T15:19:25;63.97;;;28.13;;
24631;SDS011;59977;48.782;9.190;2022-12-18T15:22:01;66.40;;;28.55;;
24631;SDS011;59977;48.782;9.190;2022-12-18T15:24:29;65.35;;;29.77;;
24631;SDS011;59977;48.782;9.190;2022-12-18T15:26:57;70.50;;;28.17;;
24631;SDS011;59977;48.782;9.190;2022-12-18T15:29:23;70.60;;;28.75;;
24631;SDS011;59977;48.782;9.190;2022-12-18T15:34:29;65.60;;;29.63;;
24631;SDS011;59977;48.782;9.190;2022-12-18T15:36:56;72.95;;;29.33;;
24631;SDS011;59977;48.782;9.190;2022-12-18T15:39:21;81.55;;;30.13;;
24631;SDS011;59977;48.782;9.190;2022-12-18T15:41:47;66.65;;;28.90;;
24631;SDS011;59977;48.782;9.190;2022-12-18T15:44:32;63.80;;;29.60;;
24631;SDS011;59977;48.782;9.190;2022-12-18T15:46:58;68.22;;;30.50;;
24631;SDS011;59977;48.782;9.190;2022-12-18T15:49:24;71.60;;;29.65;;
24631;SDS011;59977;48.782;9.190;2022-12-18T15:51:51;64.18;;;28.77;;
24631;SDS011;59977;48.782;9.190;2022-12-18T15:54:18;66.35;;;29.60;;
24631;SDS011;59977;48.782;9.190;2022-12-18T15:57:04;67.80;;;30.00;;
24631;SDS011;59977;48.782;9.190;2022-12-18T15:59:48;70.07;;;29.67;;
24631;SDS011;59977;48.782;9.190;2022-12-18T16:02:16;69.70;;;30.80;;
24631;SDS011;59977;48.782;9.190;2022-12-18T16:04:43;71.78;;;29.65;;
24631;SDS011;59977;48.782;9.190;2022-12-18T16:07:10;66.13;;;28.92;;
24631;SDS011;59977;48.782;9.190;2022-12-18T16:09:36;68.90;;;29.95;;
24631;SDS011;59977;48.782;9.190;2022-12-18T16:12:02;74.00;;;29.75;;
24631;SDS011;59977;48.782;9.190;2022-12-18T16:14:29;67.05;;;28.95;;
24631;SDS011;59977;48.782;9.190;2022-12-18T16:16:56;68.78;;;30.10;;
24631;SDS011;59977;48.782;9.190;2022-12-18T16:19:23;67.22;;;29.23;;
24631;SDS011;59977;48.782;9.190;2022-12-18T16:21:50;78.18;;;30.10;;
24631;SDS011;59977;48.782;9.190;2022-12-18T16:24:19;75.13;;;30.73;;
24631;SDS011;59977;48.782;9.190;2022-12-18T16:26:49;70.90;;;30.92;;
24631;SDS011;59977;48.782;9.190;2022-12-18T16:29:18;71.18;;;30.98;;
24631;SDS011;59977;48.782;9.190;2022-12-18T16:31:52;71.82;;;29.55;;
24631;SDS011;59977;48.782;9.190;2022-12-18T16:34:27;70.32;;;30.10;;
24631;SDS011;59977;48.782;9.190;2022-12-18T16:37:00;77.43;;;31.75;;
24631;SDS011;59977;48.782;9.190;2022-12-18T16:39:30;67.40;;;30.67;;
24631;SDS011;59977;48.782;9.190;2022-12-18T16:41:58;66.85;;;30.30;;
24631;SDS011;59977;48.782;9.190;2022-12-18T16:44:23;71.07;;;31.38;;
24631;SDS011;59977;48.782;9.190;2022-12-18T16:46:49;65.70;;;30.20;;
24631;SDS011;59977;48.782;9.190;2022-12-18T16:49:16;74.30;;;30.83;;
24631;SDS011;59977;48.782;9.190;2022-12-18T16:51:43;71.68;;;30.38;;
24631;SDS011;59977;48.782;9.190;2022-12-18T16:54:11;65.72;;;29.08;;
24631;SDS011;59977;48.782;9.190;2022-12-18T16:56:36;62.70;;;28.67;;
24631;SDS011;59977;48.782;9.190;2022-12-18T16:59:02;66.20;;;28.40;;
24631;SDS011;59977;48.782;9.190;2022-12-18T17:01:29;70.85;;;29.10;;
24631;SDS011;59977;48.782;9.190;2022-12-18T17:03:57;72.10;;;29.08;;
24631;SDS011;59977;48.782;9.190;2022-12-18T17:06:27;69.18;;;31.02;;
24631;SDS011;59977;48.782;9.190;2022-12-18T17:08:55;75.70;;;32.40;;
24631;SDS011;59977;48.782;9.190;2022-12-18T17:11:31;70.45;;;30.67;;
24631;SDS011;59977;48.782;9.190;2022-12-18T17:13:58;70.40;;;31.45;;
24631;SDS011;59977;48.782;9.190;2022-12-18T17:16:24;78.13;;;32.08;;
24631;SDS011;59977;48.782;9.190;2022-12-18T17:18:51;69.18;;;32.42;;
24631;SDS011;59977;48.782;9.190;2022-12-18T17:21:17;73.55;;;31.75;;
24631;SDS011;59977;48.782;9.190;2022-12-18T17:23:43;79.75;;;33.55;;
24631;SDS011;59977;48.782;9.190;2022-12-18T17:26:10;73.60;;;32.25;;
24631;SDS011;59977;48.782;9.190;2022-12-18T17:28:37;67.55;;;32.05;;
24631;SDS011;59977;48.782;9.190;2022-12-18T17:31:13;64.88;;;30.50;;
24631;SDS011;59977;48.782;9.190;2022-12-18T17:33:44;76.93;;;31.97;;
24631;SDS011;59977;48.782;9.190;2022-12-18T17:36:10;65.00;;;30.23;;
24631;SDS011;59977;48.782;9.190;2022-12-18T17:38:36;73.43;;;31.88;;
24631;SDS011;59977;48.782;9.190;2022-12-18T17:41:05;68.50;;;30.45;;
24631;SDS011;59977;48.782;9.190;2022-12-18T17:43:32;64.13;;;28.90;;
24631;SDS011;59977;48.782;9.190;2022-12-18T17:46:02;68.05;;;30.58;;
24631;SDS011;59977;48.782;9.190;2022-12-18T17:48:29;63.83;;;28.50;;
24631;SDS011;59977;48.782;9.190;2022-12-18T17:51:00;66.28;;;28.55;;
24631;SDS011;59977;48.782;9.190;2022-12-18T17:53:27;58.13;;;27.08;;
24631;SDS011;59977;48.782;9.190;2022-12-18T17:55:53;62.97;;;26.05;;
24631;SDS011;59977;48.782;9.190;2022-12-18T17:58:20;67.07;;;27.17;;
24631;SDS011;59977;48.782;9.190;2022-12-18T18:00:45;61.70;;;26.80;;
24631;SDS011;59977;48.782;9.190;2022-12-18T18:03:11;59.30;;;25.83;;
24631;SDS011;59977;48.782;9.190;2022-12-18T18:05:37;55.53;;;24.83;;
24631;SDS011;59977;48.782;9.190;2022-12-18T18:08:03;53.42;;;24.45;;
24631;SDS011;59977;48.782;9.190;2022-12-18T18:10:29;56.95;;;25.90;;
24631;SDS011;59977;48.782;9.190;2022-12-18T18:12:54;56.47;;;25.45;;
24631;SDS011;59977;48.782;9.190;2022-12-18T18:15:39;52.95;;;24.85;;
24631;SDS011;59977;48.782;9.190;2022-12-18T18:18:04;56.28;;;24.10;;
24631;SDS011;59977;48.782;9.190;2022-12-18T18:20:30;57.90;;;25.08;;
24631;SDS011;59977;48.782;9.190;2022-12-18T18:22:56;54.55;;;24.80;;
24631;SDS011;59977;48.782;9.190;2022-12-18T18:25:22;61.45;;;25.67;;
24631;SDS011;59977;48.782;9.190;2022-12-18T18:27:47;60.17;;;25.63;;
24631;SDS011;59977;48.782;9.190;2022-12-18T18:30:13;58.33;;;25.00;;
24631;SDS011;59977;48.782;9.190;2022-12-18T18:32:39;56.05;;;26.25;;
24631;SDS011;59977;48.782;9.190;2022-12-18T18:35:05;62.60;;;26.08;;
24631;SDS011;59977;48.782;9.190;2022-12-18T18:37:32;55.10;;;24.92;;
24631;SDS011;59977;48.782;9.190;2022-12-18T18:40:01;58.22;;;25.48;;
24631;SDS011;59977;48.782;9.190;2022-12-18T18:42:27;50.45;;;24.40;;
24631;SDS011;59977;48.782;9.190;2022-12-18T18:44:53;54.15;;;25.13;;
24631;SDS011;59977;48.782;9.190;2022-12-18T18:47:19;54.92;;;24.33;;
24631;SDS011;59977;48.782;9.190;2022-12-18T18:49:45;50.33;;;24.30;;
24631;SDS011;59977;48.782;9.190;2022-12-18T18:52:10;54.00;;;24.88;;
24631;SDS011;59977;48.782;9.190;2022-12-18T18:54:36;58.50;;;24.98;;
24631;SDS011;59977;48.782;9.190;2022-12-18T18:57:02;57.88;;;24.83;;
24631;SDS011;59977;48.782;9.190;2022-12-18T18:59:28;54.85;;;24.52;;
24631;SDS011;59977;48.782;9.190;2022-12-18T19:01:54;59.38;;;24.95;;
24631;SDS011;59977;48.782;9.190;2022-12-18T19:04:20;54.63;;;24.48;;
24631;SDS011;59977;48.782;9.190;2022-12-18T19:06:45;53.58;;;24.20;;
24631;SDS011;59977;48.782;9.190;2022-12-18T19:09:11;59.58;;;25.58;;
24631;SDS011;59977;48.782;9.190;2022-12-18T19:11:37;54.35;;;23.55;;
24631;SDS011;59977;48.782;9.190;2022-12-18T19:14:22;61.13;;;25.02;;
24631;SDS011;59977;48.782;9.190;2022-12-18T19:16:48;64.90;;;26.23;;
24631;SDS011;59977;48.782;9.190;2022-12-18T19:19:13;63.20;;;25.45;;
24631;SDS011;59977;48.782;9.190;2022-12-18T19:21:41;64.05;;;25.30;;
24631;SDS011;59977;48.782;9.190;2022-12-18T19:24:08;58.63;;;26.75;;
24631;SDS011;59977;48.782;9.190;2022-12-18T19:26:34;60.55;;;25.38;;
24631;SDS011;59977;48.782;9.190;2022-12-18T19:29:00;56.00;;;25.25;;
24631;SDS011;59977;48.782;9.190;2022-12-18T19:31:30;56.75;;;25.35;;
24631;SDS011;59977;48.782;9.190;2022-12-18T19:33:57;63.15;;;27.33;;
24631;SDS011;59977;48.782;9.190;2022-12-18T19:36:24;64.47;;;27.65;;
24631;SDS011;59977;48.782;9.190;2022-12-18T19:38:52;63.55;;;28.38;;
24631;SDS011;59977;48.782;9.190;2022-12-18T19:41:20;59.80;;;27.13;;
24631;SDS011;59977;48.782;9.190;2022-12-18T19:43:46;61.72;;;27.63;;
24631;SDS011;59977;48.782;9.190;2022-12-18T19:46:13;63.80;;;28.40;;
24631;SDS011;59977;48.782;9.190;2022-12-18T19:48:41;58.38;;;26.45;;
24631;SDS011;59977;48.782;9.190;2022-12-18T19:51:09;58.28;;;26.70;;
24631;SDS011;59977;48.782;9.190;2022-12-18T19:53:37;58.15;;;27.48;;
24631;SDS011;59977;48.782;9.190;2022-12-18T19:56:07;56.15;;;26.73;;
24631;SDS011;59977;48.782;9.190;2022-12-18T19:58:36;67.13;;;29.05;;
24631;SDS011;59977;48.782;9.190;2022-12-18T20:01:02;59.40;;;27.73;;
24631;SDS011;59977;48.782;9.190;2022-12-18T20:03:28;61.08;;;27.38;;
24631;SDS011;59977;48.782;9.190;2022-12-18T20:05:54;62.17;;;28.23;;
24631;SDS011;59977;48.782;9.190;2022-12-18T20:08:20;61.38;;;27.52;;
24631;SDS011;59977;48.782;9.190;2022-12-18T20:10:45;67.47;;;28.88;;
24631;SDS011;59977;48.782;9.190;2022-12-18T20:13:14;66.68;;;29.02;;
24631;SDS011;59977;48.782;9.190;2022-12-18T20:15:40;55.75;;;26.67;;
24631;SDS011;59977;48.782;9.190;2022-12-18T20:18:07;58.80;;;27.02;;
24631;SDS011;59977;48.782;9.190;2022-12-18T20:20:33;62.95;;;27.33;;
24631;SDS011;59977;48.782;9.190;2022-12-18T20:22:59;66.95;;;28.38;;
24631;SDS011;59977;48.782;9.190;2022-12-18T20:25:24;64.00;;;28.48;;
24631;SDS011;59977;48.782;9.190;2022-12-18T20:27:50;61.10;;;27.80;;
24631;SDS011;59977;48.782;9.190;2022-12-18T20:30:15;63.03;;;27.25;;
24631;SDS011;59977;48.782;9.190;2022-12-18T20:32:41;60.63;;;27.25;;
24631;SDS011;59977;48.782;9.190;2022-12-18T20:35:07;59.42;;;26.40;;
24631;SDS011;59977;48.782;9.190;2022-12-18T20:37:32;59.88;;;27.27;;
24631;SDS011;59977;48.782;9.190;2022-12-18T20:39:58;61.60;;;27.23;;
24631;SDS011;59977;48.782;9.190;2022-12-18T20:42:24;58.35;;;27.10;;
24631;SDS011;59977;48.782;9.190;2022-12-18T20:44:49;61.60;;;27.98;;
24631;SDS011;59977;48.782;9.190;2022-12-18T20:47:15;57.25;;;26.02;;
24631;SDS011;59977;48.782;9.190;2022-12-18T20:49:40;58.88;;;27.05;;
24631;SDS011;59977;48.782;9.190;2022-12-18T20:52:06;63.03;;;26.35;;
24631;SDS011;59977;48.782;9.190;2022-12-18T20:54:33;61.22;;;27.45;;
24631;SDS011;59977;48.782;9.190;2022-12-18T20:56:59;64.18;;;29.50;;
24631;SDS011;59977;48.782;9.190;2022-12-18T20:59:24;59.00;;;27.25;;
24631;SDS011;59977;48.782;9.190;2022-12-18T21:01:50;63.38;;;28.17;;
24631;SDS011;59977;48.782;9.190;2022-12-18T21:04:16;64.90;;;26.90;;
24631;SDS011;59977;48.782;9.190;2022-12-18T21:06:42;59.65;;;27.25;;
24631;SDS011;59977;48.782;9.190;2022-12-18T21:19:30;61.95;;;27.35;;
24631;SDS011;59977;48.782;9.190;2022-12-18T22:15:48;67.80;;;28.30;;
24631;SDS011;59977;48.782;9.190;2022-12-18T22:18:14;73.88;;;34.58;;
24631;SDS011;59977;48.782;9.190;2022-12-18T22:20:39;71.78;;;30.58;;
24631;SDS011;59977;48.782;9.190;2022-12-18T22:23:05;64.55;;;28.17;;
24631;SDS011;59977;48.782;9.190;2022-12-18T22:25:31;63.30;;;28.00;;
24631;SDS011;59977;48.782;9.190;2022-12-18T22:27:57;65.03;;;28.55;;
24631;SDS011;59977;48.782;9.190;2022-12-18T22:30:41;66.88;;;28.88;;
24631;SDS011;59977;48.782;9.190;2022-12-18T22:33:06;63.95;;;28.48;;
24631;SDS011;59977;48.782;9.190;2022-12-18T22:35:32;64.05;;;28.30;;
24631;SDS011;59977;48.782;9.190;2022-12-18T22:37:58;64.45;;;29.17;;
24631;SDS011;59977;48.782;9.190;2022-12-18T22:40:24;63.85;;;28.55;;
